Time;durP1;ratioP1;P1;durP2;ratioP2;P2;SDS_P1;SDS_P2;PMS_P1;PMS_P2;Temp;Humidity;BMP_temperature;BMP_pressure;BME280_temperature;BME280_humidity;BME280_pressure;Samples;Min_cycle;Max_cycle;Signal;HPM_P1;HPM_P2
2021/04/07 00:02:09;;;;;;;8.50;4.23;;;;;;;2.69;71.00;100300.97;5061132;28;20208;-67
2021/04/07 00:04:35;;;;;;;8.17;3.80;;;;;;;2.56;71.29;100306.50;5061618;28;20512;-68
2021/04/07 00:07:01;;;;;;;8.37;4.07;;;;;;;2.46;71.83;100300.19;5060580;28;20203;-67
2021/04/07 00:09:26;;;;;;;11.40;4.40;;;;;;;2.82;70.55;100303.16;5060630;28;20222;-68
2021/04/07 00:11:52;;;;;;;13.90;4.23;;;;;;;2.82;70.07;100297.13;5060799;28;20301;-67
2021/04/07 00:14:18;;;;;;;13.40;4.50;;;;;;;2.55;70.52;100297.94;5061174;28;20540;-67
2021/04/07 00:16:43;;;;;;;8.87;4.17;;;;;;;2.66;70.27;100304.31;5060704;28;20177;-68
2021/04/07 00:19:09;;;;;;;7.73;3.60;;;;;;;2.53;70.37;100309.88;5061546;28;20418;-68
2021/04/07 00:21:35;;;;;;;9.57;3.87;;;;;;;2.43;70.40;100307.78;5060894;28;20189;-67
2021/04/07 00:24:00;;;;;;;10.53;3.90;;;;;;;2.50;70.48;100304.59;5060799;28;20177;-67
2021/04/07 00:26:25;;;;;;;9.20;4.37;;;;;;;2.56;70.31;100306.50;5060866;28;20234;-69
2021/04/07 00:28:50;;;;;;;5.67;4.07;;;;;;;2.61;70.30;100313.59;5061056;28;20208;-67
2021/04/07 00:31:16;;;;;;;8.87;3.80;;;;;;;2.61;70.22;100308.44;5060868;28;20209;-68
2021/04/07 00:33:41;;;;;;;10.53;4.03;;;;;;;2.63;70.19;100309.38;5060803;28;20201;-67
2021/04/07 00:36:07;;;;;;;14.60;4.03;;;;;;;2.65;69.59;100307.72;5060722;28;20184;-68
2021/04/07 00:38:32;;;;;;;7.60;4.93;;;;;;;2.49;70.34;100308.00;5061072;28;20178;-68
2021/04/07 00:40:57;;;;;;;7.93;3.90;;;;;;;2.46;71.14;100308.78;5060067;28;20420;-69
2021/04/07 00:43:23;;;;;;;7.30;3.90;;;;;;;2.65;70.06;100314.56;5060716;28;20548;-69
2021/04/07 00:45:48;;;;;;;7.10;3.30;;;;;;;2.27;70.97;100316.66;5061102;28;20185;-70
2021/04/07 00:48:13;;;;;;;12.93;4.50;;;;;;;2.59;70.90;100312.66;5060090;28;20189;-71
2021/04/07 00:50:39;;;;;;;8.27;4.07;;;;;;;2.46;69.77;100319.09;5060365;28;20578;-70
2021/04/07 00:53:04;;;;;;;10.77;4.17;;;;;;;2.16;72.19;100317.13;5060723;28;20279;-70
2021/04/07 00:55:32;;;;;;;6.03;3.70;;;;;;;2.16;71.95;100318.84;5060750;28;20430;-70
2021/04/07 00:57:57;;;;;;;11.07;4.30;;;;;;;2.09;71.22;100316.88;5059461;28;20169;-70
2021/04/07 01:00:23;;;;;;;9.83;4.00;;;;;;;2.19;71.42;100318.94;5059642;28;20419;-70
2021/04/07 01:02:58;;;;;;;10.13;4.40;;;;;;;2.08;72.46;100317.66;5060201;28;20172;-70
2021/04/07 01:05:24;;;;;;;10.40;3.90;;;;;;;2.23;71.37;100319.94;5060249;28;20432;-70
2021/04/07 01:07:49;;;;;;;12.50;3.97;;;;;;;2.68;69.99;100310.41;5059650;28;20416;-69
2021/04/07 01:10:15;;;;;;;6.60;3.67;;;;;;;2.29;70.86;100309.88;5060325;28;20624;-70
2021/04/07 01:12:42;;;;;;;7.40;3.50;;;;;;;1.88;72.18;100309.22;5060312;28;20193;-68
2021/04/07 01:15:07;;;;;;;5.83;3.73;;;;;;;2.06;72.01;100321.88;5059762;28;20462;-69
2021/04/07 01:17:33;;;;;;;9.20;4.17;;;;;;;1.77;73.30;100319.09;5060045;28;20424;-71
2021/04/07 01:19:59;;;;;;;12.73;4.23;;;;;;;2.19;72.25;100318.94;5060252;28;20166;-69
2021/04/07 01:22:25;;;;;;;13.03;4.20;;;;;;;1.93;73.19;100321.41;5058916;28;20270;-71
2021/04/07 01:24:51;;;;;;;10.17;3.63;;;;;;;2.02;73.23;100326.03;5055068;28;20540;-70
2021/04/07 01:27:16;;;;;;;14.73;4.90;;;;;;;1.94;73.59;100312.88;5040239;28;20405;-70
2021/04/07 01:29:42;;;;;;;10.53;4.17;;;;;;;1.98;74.20;100319.91;5039917;28;20174;-69
2021/04/07 01:32:07;;;;;;;14.57;4.67;;;;;;;1.70;74.83;100320.53;5039386;28;20219;-69
2021/04/07 01:34:33;;;;;;;9.67;4.40;;;;;;;2.21;73.69;100325.03;5056469;28;20181;-69
2021/04/07 01:37:00;;;;;;;8.07;3.90;;;;;;;1.92;73.37;100314.53;5059842;28;20220;-70
2021/04/07 01:39:27;;;;;;;13.57;4.83;;;;;;;2.02;73.01;100329.47;5059686;28;20466;-70
2021/04/07 01:41:53;;;;;;;15.20;4.23;;;;;;;2.14;72.48;100325.63;5069389;28;20427;-71
2021/04/07 01:44:19;;;;;;;12.27;3.97;;;;;;;2.17;72.63;100326.59;5060381;28;20416;-71
2021/04/07 01:46:45;;;;;;;14.40;4.40;;;;;;;2.20;72.17;100330.97;5059488;28;20219;-71
2021/04/07 01:49:11;;;;;;;14.67;6.17;;;;;;;1.95;73.04;100322.38;5059537;28;20447;-69
2021/04/07 01:51:37;;;;;;;10.03;4.83;;;;;;;2.09;72.42;100327.16;5058909;28;20235;-70
2021/04/07 01:54:05;;;;;;;9.00;4.40;;;;;;;1.78;72.80;100331.13;5059336;28;20416;-70
2021/04/07 01:56:30;;;;;;;7.27;4.30;;;;;;;1.90;72.15;100328.16;5059617;28;20257;-69
2021/04/07 01:59:06;;;;;;;12.73;3.83;;;;;;;1.66;73.27;100336.66;5092278;28;20419;-72
2021/04/07 02:01:35;;;;;;;7.60;4.10;;;;;;;1.87;73.17;100336.63;5057784;28;20747;-70
2021/04/07 02:04:01;;;;;;;9.33;4.20;;;;;;;1.74;73.31;100339.53;5059532;28;20448;-69
2021/04/07 02:06:27;;;;;;;7.30;4.07;;;;;;;1.43;74.33;100336.63;5059102;28;20455;-69
2021/04/07 02:08:52;;;;;;;7.53;3.53;;;;;;;1.69;73.68;100336.75;5062166;28;20806;-69
2021/04/07 02:11:17;;;;;;;11.10;3.87;;;;;;;1.82;73.15;100340.69;5065651;28;20216;-70
2021/04/07 02:13:42;;;;;;;7.20;4.20;;;;;;;1.82;72.72;100335.56;5068015;28;20173;-70
2021/04/07 02:16:12;;;;;;;8.27;4.50;;;;;;;1.80;73.29;100332.03;5066519;28;20235;-70
2021/04/07 02:18:38;;;;;;;12.60;4.10;;;;;;;1.55;73.89;100332.81;5060616;28;20165;-69
2021/04/07 02:21:03;;;;;;;13.37;4.73;;;;;;;1.85;72.78;100333.09;5058582;28;20817;-70
2021/04/07 02:23:28;;;;;;;12.40;4.33;;;;;;;1.46;73.69;100336.75;5058676;28;20482;-71
2021/04/07 02:25:54;;;;;;;9.27;4.87;;;;;;;1.63;73.45;100332.28;5059160;28;20213;-71
2021/04/07 02:28:19;;;;;;;11.83;5.47;;;;;;;1.60;73.93;100350.16;5058627;28;20170;-71
2021/04/07 02:30:44;;;;;;;14.97;8.50;;;;;;;1.90;73.23;100349.59;5058714;28;20204;-72
2021/04/07 02:33:10;;;;;;;7.13;4.23;;;;;;;2.14;72.61;100336.78;5058680;28;20219;-71
2021/04/07 02:35:35;;;;;;;18.23;6.27;;;;;;;2.00;73.14;100338.84;5058636;28;20283;-71
2021/04/07 02:38:00;;;;;;;7.47;4.10;;;;;;;2.35;71.52;100336.72;5059018;28;20486;-71
2021/04/07 02:40:26;;;;;;;11.40;4.47;;;;;;;1.88;72.25;100338.38;5058196;28;20461;-69
2021/04/07 02:42:51;;;;;;;13.37;5.00;;;;;;;2.05;71.83;100335.56;5058847;28;20582;-68
2021/04/07 02:45:16;;;;;;;10.50;4.77;;;;;;;2.08;71.88;100340.81;5058984;28;20166;-69
2021/04/07 02:47:42;;;;;;;15.40;4.77;;;;;;;1.81;72.14;100337.28;5058653;28;20180;-69
2021/04/07 02:50:08;;;;;;;11.90;4.03;;;;;;;1.94;72.20;100338.59;5058311;28;20512;-69
2021/04/07 02:52:33;;;;;;;11.70;6.00;;;;;;;2.07;70.91;100336.47;5058862;28;20280;-68
2021/04/07 02:54:58;;;;;;;9.40;4.50;;;;;;;2.08;71.88;100336.53;5058459;28;20173;-68
2021/04/07 02:57:23;;;;;;;9.43;4.17;;;;;;;1.95;71.98;100335.22;5058138;28;20174;-69
2021/04/07 02:59:49;;;;;;;13.10;4.83;;;;;;;2.25;70.60;100334.59;5058190;28;20262;-68
2021/04/07 03:02:14;;;;;;;10.97;4.80;;;;;;;2.00;71.26;100338.84;5056932;28;20197;-69
2021/04/07 03:04:40;;;;;;;7.00;3.87;;;;;;;1.81;72.12;100341.50;5058202;28;20543;-68
2021/04/07 03:07:05;;;;;;;11.27;3.90;;;;;;;1.83;72.37;100343.31;5058342;28;20215;-69
2021/04/07 03:09:30;;;;;;;7.90;3.90;;;;;;;1.74;72.85;100347.25;5057841;28;20208;-68
2021/04/07 03:11:56;;;;;;;7.43;4.00;;;;;;;1.76;72.26;100351.63;5057689;28;20197;-68
2021/04/07 03:14:23;;;;;;;11.00;4.03;;;;;;;1.59;73.17;100353.53;5057862;28;20228;-68
2021/04/07 03:16:48;;;;;;;7.63;4.03;;;;;;;1.44;72.76;100361.50;5058070;28;20193;-68
2021/04/07 03:19:13;;;;;;;12.40;5.00;;;;;;;1.59;72.65;100356.09;5057571;28;20501;-69
2021/04/07 03:21:38;;;;;;;8.00;4.00;;;;;;;1.54;72.78;100355.03;5058054;28;20177;-67
2021/04/07 03:24:04;;;;;;;7.53;4.40;;;;;;;1.48;72.93;100358.22;5057935;28;20174;-68
2021/04/07 03:26:29;;;;;;;12.90;4.23;;;;;;;1.38;73.71;100350.09;5058007;28;20225;-68
2021/04/07 03:28:55;;;;;;;8.53;4.00;;;;;;;1.27;73.37;100354.78;5057139;28;20183;-68
2021/04/07 03:31:21;;;;;;;11.53;3.83;;;;;;;1.32;73.20;100355.88;5057462;28;20480;-68
2021/04/07 03:33:46;;;;;;;9.90;4.30;;;;;;;1.05;74.08;100361.59;5057828;28;20177;-68
2021/04/07 03:36:11;;;;;;;9.67;3.93;;;;;;;1.18;73.87;100355.31;5060193;28;20549;-70
2021/04/07 03:38:37;;;;;;;8.47;4.10;;;;;;;1.29;73.71;100354.03;5065657;28;20570;-68
2021/04/07 03:41:03;;;;;;;8.87;3.97;;;;;;;1.03;73.55;100358.13;5057413;28;20473;-68
2021/04/07 03:43:28;;;;;;;8.70;4.03;;;;;;;1.07;73.81;100353.97;5057851;28;20184;-67
2021/04/07 03:45:55;;;;;;;11.77;3.77;;;;;;;1.18;73.61;100363.00;5057657;28;20427;-67
2021/04/07 03:48:23;;;;;;;11.77;4.90;;;;;;;0.91;73.87;100365.31;5057406;28;20204;-69
2021/04/07 03:50:49;;;;;;;8.97;3.67;;;;;;;1.30;73.73;100373.78;5057519;28;20471;-69
2021/04/07 03:53:15;;;;;;;10.00;4.50;;;;;;;1.57;72.26;100362.88;5057526;28;20420;-68
2021/04/07 03:55:41;;;;;;;8.20;3.83;;;;;;;1.03;73.54;100368.38;5057733;28;20174;-69
2021/04/07 03:58:06;;;;;;;21.23;4.37;;;;;;;0.85;74.28;100373.59;5057875;28;20688;-68
2021/04/07 04:00:32;;;;;;;7.10;4.67;;;;;;;0.75;74.53;100366.31;5057108;28;20706;-69
2021/04/07 04:02:58;;;;;;;9.07;4.20;;;;;;;1.04;73.76;100379.50;5057590;28;20169;-68
2021/04/07 04:05:24;;;;;;;13.50;4.20;;;;;;;1.01;73.22;100375.13;5057616;28;20166;-68
2021/04/07 04:07:49;;;;;;;7.80;4.10;;;;;;;0.97;73.95;100371.53;5057428;28;20180;-67
2021/04/07 04:10:15;;;;;;;12.33;4.50;;;;;;;1.25;73.01;100377.84;5057220;28;20869;-68
2021/04/07 04:12:40;;;;;;;11.93;4.20;;;;;;;1.31;73.07;100377.22;5057428;28;20166;-67
2021/04/07 04:15:09;;;;;;;13.57;5.20;;;;;;;1.06;72.83;100381.34;5057419;28;20177;-68
2021/04/07 04:17:35;;;;;;;13.07;4.53;;;;;;;1.29;73.35;100377.16;5057359;28;20262;-68
2021/04/07 04:20:01;;;;;;;7.97;4.47;;;;;;;1.25;72.65;100382.97;5057337;28;20445;-68
2021/04/07 04:22:26;;;;;;;10.03;4.27;;;;;;;1.16;72.66;100378.34;5057029;28;20428;-69
2021/04/07 04:24:51;;;;;;;8.77;4.00;;;;;;;1.31;72.72;100384.91;5051870;28;20218;-68
2021/04/07 04:27:16;;;;;;;12.60;4.17;;;;;;;1.24;72.93;100382.94;5056204;28;20234;-71
2021/04/07 04:29:42;;;;;;;7.67;3.93;;;;;;;1.22;73.07;100388.00;5057036;28;20562;-71
2021/04/07 04:32:07;;;;;;;7.80;4.00;;;;;;;1.17;73.33;100386.91;5040787;28;20262;-71
2021/04/07 04:34:33;;;;;;;12.10;3.93;;;;;;;0.79;74.18;100389.59;5050343;28;20185;-70
2021/04/07 04:36:58;;;;;;;14.90;5.10;;;;;;;0.78;75.21;100392.97;5080670;28;20223;-71
2021/04/07 04:39:23;;;;;;;9.70;4.50;;;;;;;1.16;73.12;100391.19;5067961;28;20185;-71
2021/04/07 04:41:49;;;;;;;13.97;5.07;;;;;;;1.04;73.66;100389.78;5060952;28;20177;-70
2021/04/07 04:44:14;;;;;;;8.27;4.70;;;;;;;0.93;73.90;100397.03;5060606;28;20185;-71
2021/04/07 04:46:39;;;;;;;11.63;4.80;;;;;;;1.05;74.55;100400.13;5056401;28;20204;-71
2021/04/07 04:49:05;;;;;;;8.43;4.83;;;;;;;1.23;73.55;100401.69;5062384;28;20267;-72
2021/04/07 04:51:30;;;;;;;7.73;4.43;;;;;;;1.30;73.10;100404.59;5062516;28;20235;-71
2021/04/07 04:53:55;;;;;;;7.50;4.27;;;;;;;1.17;73.59;100413.47;5060260;28;20581;-70
2021/04/07 04:56:21;;;;;;;6.63;4.50;;;;;;;1.13;73.58;100411.59;5050325;28;20190;-70
2021/04/07 04:58:46;;;;;;;13.47;6.73;;;;;;;1.66;73.01;100413.75;5056586;28;20192;-69
2021/04/07 05:01:11;;;;;;;7.97;4.90;;;;;;;1.63;72.78;100408.50;5058944;28;20207;-70
2021/04/07 05:03:36;;;;;;;15.60;5.80;;;;;;;1.71;72.07;100411.38;5060772;28;20200;-71
2021/04/07 05:06:02;;;;;;;11.23;5.67;;;;;;;1.45;73.05;100413.75;5060312;28;20177;-69
2021/04/07 05:08:27;;;;;;;15.63;6.43;;;;;;;1.96;71.60;100413.19;5059750;28;20189;-70
2021/04/07 05:10:53;;;;;;;9.23;5.47;;;;;;;1.75;73.13;100410.69;5057711;28;20243;-70
2021/04/07 05:13:18;;;;;;;17.23;5.70;;;;;;;1.34;72.69;100416.75;5059660;28;20186;-71
2021/04/07 05:15:43;;;;;;;9.20;6.70;;;;;;;2.07;72.68;100417.09;5060433;28;20535;-71
2021/04/07 05:18:11;;;;;;;10.60;6.30;;;;;;;2.24;72.73;100416.84;5060551;28;20176;-71
2021/04/07 05:20:37;;;;;;;13.70;5.37;;;;;;;2.10;71.89;100424.06;5060098;28;20431;-71
2021/04/07 05:23:02;;;;;;;9.80;6.37;;;;;;;2.12;70.35;100423.25;5060001;28;20408;-71
2021/04/07 05:25:27;;;;;;;11.03;7.27;;;;;;;1.95;72.09;100426.88;5060065;28;20944;-72
2021/04/07 05:27:53;;;;;;;11.40;5.80;;;;;;;2.23;71.91;100431.38;5059969;28;20316;-71
2021/04/07 05:30:19;;;;;;;13.43;6.63;;;;;;;1.77;72.08;100430.50;5060046;28;20231;-75
2021/04/07 05:32:44;;;;;;;5.73;4.50;;;;;;;2.08;72.30;100429.09;5063027;28;20185;-72
2021/04/07 05:35:10;;;;;;;11.20;4.97;;;;;;;2.18;72.55;100420.94;5061924;28;20420;-72
2021/04/07 05:37:35;;;;;;;10.23;5.03;;;;;;;2.04;71.97;100429.81;5059761;28;20202;-71
2021/04/07 05:40:01;;;;;;;10.50;5.63;;;;;;;1.77;72.48;100432.16;5059343;28;20698;-71
2021/04/07 05:42:26;;;;;;;9.10;5.13;;;;;;;1.97;71.98;100427.81;5057716;28;20236;-70
2021/04/07 05:44:51;;;;;;;8.60;5.20;;;;;;;2.24;71.62;100433.16;5060012;28;20212;-70
2021/04/07 05:47:17;;;;;;;13.90;5.60;;;;;;;2.26;71.33;100438.34;5076826;28;20579;-71
2021/04/07 05:49:42;;;;;;;12.07;5.53;;;;;;;2.09;71.49;100435.16;5062913;28;20189;-71
2021/04/07 05:52:07;;;;;;;10.90;5.37;;;;;;;2.18;71.44;100433.78;5045198;28;20186;-70
2021/04/07 05:54:32;;;;;;;9.23;5.00;;;;;;;2.11;70.90;100441.22;5051669;28;20219;-71
2021/04/07 05:56:58;;;;;;;10.60;6.20;;;;;;;2.00;72.23;100435.66;5062828;28;20217;-72
2021/04/07 05:59:23;;;;;;;10.00;5.40;;;;;;;2.18;72.05;100430.38;5056913;28;20185;-70
2021/04/07 06:01:49;;;;;;;8.40;4.80;;;;;;;2.52;71.30;100429.06;5067872;28;20209;-71
2021/04/07 06:04:15;;;;;;;9.23;5.03;;;;;;;1.91;71.51;100440.41;5059996;28;20529;-71
2021/04/07 06:06:41;;;;;;;6.80;4.47;;;;;;;2.21;71.18;100439.91;5039163;28;20178;-71
2021/04/07 06:09:06;;;;;;;6.87;4.70;;;;;;;2.35;69.84;100439.59;5058752;28;20468;-71
2021/04/07 06:11:33;;;;;;;9.90;5.30;;;;;;;2.21;69.73;100455.31;5038867;28;20886;-70
2021/04/07 06:13:58;;;;;;;7.40;4.40;;;;;;;3.14;69.80;100445.03;5039783;28;20213;-71
2021/04/07 06:16:23;;;;;;;10.73;5.23;;;;;;;2.63;71.29;100450.03;5047593;28;20468;-71
2021/04/07 06:18:49;;;;;;;5.63;4.43;;;;;;;2.76;69.94;100456.50;5048449;28;20550;-71
2021/04/07 06:21:14;;;;;;;7.60;4.50;;;;;;;2.75;71.68;100457.31;5073127;28;20166;-71
2021/04/07 06:23:40;;;;;;;7.97;4.83;;;;;;;3.20;69.83;100452.06;5058233;28;20170;-71
2021/04/07 06:26:05;;;;;;;8.37;5.43;;;;;;;2.95;68.06;100460.63;5056075;28;20221;-70
2021/04/07 06:28:31;;;;;;;7.17;4.13;;;;;;;2.68;68.43;100459.69;5059521;28;20216;-70
2021/04/07 06:30:56;;;;;;;10.40;4.30;;;;;;;2.68;68.68;100461.41;5076955;28;20496;-70
2021/04/07 06:33:26;;;;;;;8.53;4.70;;;;;;;2.18;69.92;100477.53;5048399;28;20212;-71
2021/04/07 06:36:13;;;;;;;5.03;4.20;;;;;;;2.99;69.53;100465.06;5041798;28;20212;-72
2021/04/07 06:38:39;;;;;;;8.07;4.10;;;;;;;3.16;68.48;100471.69;5054762;28;20452;-70
2021/04/07 06:41:05;;;;;;;8.23;4.10;;;;;;;2.57;68.78;100479.00;5046140;28;20733;-71
2021/04/07 06:43:31;;;;;;;5.83;3.70;;;;;;;2.39;69.19;100476.59;5037317;28;20252;-71
2021/04/07 06:45:57;;;;;;;10.47;4.23;;;;;;;2.60;69.67;100475.66;5056589;28;20459;-71
2021/04/07 06:48:22;;;;;;;4.80;4.17;;;;;;;2.35;70.63;100479.88;5059097;28;20420;-70
2021/04/07 06:50:50;;;;;;;7.10;4.50;;;;;;;2.47;69.11;100480.31;5057560;28;20220;-73
2021/04/07 06:53:16;;;;;;;7.70;4.60;;;;;;;2.78;68.33;100484.06;5058075;28;20176;-71
2021/04/07 06:55:42;;;;;;;9.23;4.23;;;;;;;2.28;70.85;100473.59;5058568;28;20840;-72
2021/04/07 06:58:09;;;;;;;6.07;4.00;;;;;;;2.44;68.92;100480.22;5058067;28;20412;-71
2021/04/07 07:00:35;;;;;;;5.87;4.23;;;;;;;2.62;70.42;100495.47;5057822;28;20174;-71
2021/04/07 07:03:12;;;;;;;7.93;4.00;;;;;;;2.41;69.52;100479.22;5057207;28;20444;-70
2021/04/07 07:05:39;;;;;;;6.60;4.13;;;;;;;2.44;69.96;100481.94;5045972;28;20479;-69
2021/04/07 07:08:07;;;;;;;7.13;4.20;;;;;;;2.47;70.38;100492.34;5064316;28;20654;-69
2021/04/07 07:10:35;;;;;;;5.50;4.30;;;;;;;2.86;68.99;100484.34;5078120;28;20903;-69
2021/04/07 07:13:01;;;;;;;7.90;4.30;;;;;;;2.54;69.32;100484.00;5072611;28;20728;-69
2021/04/07 07:15:26;;;;;;;7.53;4.30;;;;;;;2.48;70.09;100487.25;5044271;28;20448;-68
2021/04/07 07:17:52;;;;;;;9.77;4.87;;;;;;;3.05;68.99;100485.03;5038321;28;20190;-69
2021/04/07 07:20:26;;;;;;;6.63;3.73;;;;;;;2.92;69.13;100487.13;5044671;28;20192;-69
2021/04/07 07:22:51;;;;;;;9.73;4.10;;;;;;;2.22;70.52;100491.38;5038444;28;20185;-70
2021/04/07 07:25:17;;;;;;;4.40;3.60;;;;;;;2.84;69.83;100489.44;5048406;28;20751;-67
2021/04/07 07:27:43;;;;;;;10.30;4.33;;;;;;;2.52;70.20;100490.81;5059073;28;20221;-67
2021/04/07 07:30:13;;;;;;;6.60;3.80;;;;;;;3.09;70.16;100487.75;5064640;28;20185;-67
2021/04/07 07:32:40;;;;;;;6.00;4.57;;;;;;;2.83;69.89;100489.41;5053662;28;20459;-68
2021/04/07 07:35:07;;;;;;;5.90;4.33;;;;;;;3.28;68.52;100488.41;5049842;28;20428;-67
2021/04/07 07:37:32;;;;;;;8.40;4.97;;;;;;;2.89;69.84;100494.75;5058509;28;20904;-68
2021/04/07 07:39:57;;;;;;;9.93;6.60;;;;;;;3.63;67.71;100492.19;5057906;28;20515;-67
2021/04/07 07:42:23;;;;;;;7.60;4.63;;;;;;;3.18;68.07;100492.34;5057550;28;20231;-70
2021/04/07 07:44:49;;;;;;;5.60;4.27;;;;;;;3.19;68.83;100491.53;5056855;28;20555;-71
2021/04/07 07:47:24;;;;;;;8.40;4.03;;;;;;;3.55;68.19;100491.06;5049480;28;20440;-69
2021/04/07 07:49:59;;;;;;;6.40;4.70;;;;;;;4.01;67.31;100483.97;5037825;28;20174;-70
2021/04/07 07:52:30;;;;;;;7.90;4.20;;;;;;;3.48;68.19;100505.44;5039311;28;20475;-70
2021/04/07 07:54:56;;;;;;;6.67;4.40;;;;;;;3.77;68.54;100502.09;5037621;28;20474;-70
2021/04/07 07:57:21;;;;;;;9.17;3.97;;;;;;;3.28;69.21;100502.16;5037961;28;20459;-70
2021/04/07 07:59:47;;;;;;;6.67;4.40;;;;;;;3.61;68.87;100503.28;5049584;28;20429;-70
2021/04/07 08:02:18;;;;;;;9.80;4.67;;;;;;;3.24;69.52;100508.03;5091776;28;20185;-71
2021/04/07 08:04:48;;;;;;;7.80;4.60;;;;;;;3.34;69.89;100506.66;5042421;28;20190;-71
2021/04/07 08:07:14;;;;;;;4.23;3.80;;;;;;;3.44;69.61;100506.16;5041907;28;20441;-71
2021/04/07 08:09:40;;;;;;;7.90;4.00;;;;;;;3.50;69.17;100505.50;5044846;28;20441;-72
2021/04/07 08:12:08;;;;;;;8.13;4.10;;;;;;;2.97;69.94;100511.34;5048473;28;20471;-70
2021/04/07 08:14:33;;;;;;;7.10;3.83;;;;;;;3.15;70.58;100507.69;5060682;28;20198;-71
2021/04/07 08:16:59;;;;;;;7.33;4.10;;;;;;;3.33;69.07;100508.38;5102250;28;20511;-70
2021/04/07 08:19:27;;;;;;;5.17;4.60;;;;;;;3.27;69.41;100502.97;5052187;28;20178;-70
2021/04/07 08:21:58;;;;;;;7.33;4.03;;;;;;;3.29;70.29;100505.59;5058930;28;20507;-70
2021/04/07 08:24:25;;;;;;;4.97;4.47;;;;;;;3.65;69.42;100513.75;5041541;28;20471;-69
2021/04/07 08:26:50;;;;;;;5.40;3.77;;;;;;;3.70;69.03;100503.59;5050563;28;20473;-69
2021/04/07 08:29:16;;;;;;;6.67;4.33;;;;;;;3.77;69.93;100521.00;5042142;28;20413;-71
2021/04/07 08:31:44;;;;;;;4.70;4.30;;;;;;;3.61;69.92;100508.44;5046782;28;20222;-69
2021/04/07 08:34:11;;;;;;;6.53;4.60;;;;;;;3.66;68.94;100502.59;5065330;28;20771;-69
2021/04/07 08:36:40;;;;;;;7.60;4.33;;;;;;;3.63;70.04;100510.25;5060923;28;20705;-69
2021/04/07 08:39:24;;;;;;;8.10;4.97;;;;;;;3.48;71.22;100505.44;5056286;28;20443;-71
2021/04/07 08:41:50;;;;;;;5.83;4.23;;;;;;;3.57;71.24;100507.44;5042786;28;20490;-68
2021/04/07 08:44:19;;;;;;;4.10;3.70;;;;;;;3.50;71.26;100506.34;5045725;28;20440;-68
2021/04/07 08:46:49;;;;;;;5.93;4.23;;;;;;;3.49;70.91;100512.34;5055225;28;20493;-68
2021/04/07 08:49:39;;;;;;;4.93;4.43;;;;;;;3.22;71.17;100514.84;5048572;28;20443;-69
2021/04/07 08:52:18;;;;;;;4.87;3.97;;;;;;;3.12;70.83;100523.06;5049190;28;20763;-68
2021/04/07 08:54:49;;;;;;;7.63;4.70;;;;;;;3.61;71.73;100517.03;5040727;28;20417;-68
2021/04/07 08:57:30;;;;;;;6.30;4.23;;;;;;;3.52;70.33;100514.16;5040876;28;20453;-68
2021/04/07 08:59:56;;;;;;;5.90;4.10;;;;;;;3.82;69.58;100518.59;5085906;28;20447;-68
2021/04/07 09:02:22;;;;;;;7.83;4.80;;;;;;;3.77;69.35;100520.16;5059970;28;20416;-70
2021/04/07 09:04:58;;;;;;;9.10;4.30;;;;;;;3.82;69.38;100523.75;5060101;28;20518;-65
2021/04/07 09:07:42;;;;;;;5.00;4.17;;;;;;;3.96;68.19;100526.78;5067567;28;20172;-66
2021/04/07 09:10:18;;;;;;;4.57;4.07;;;;;;;3.85;70.58;100531.59;5079816;28;20439;-66
2021/04/07 09:12:46;;;;;;;4.93;4.27;;;;;;;4.18;69.55;100529.25;5054255;28;20443;-67
2021/04/07 09:15:21;;;;;;;8.17;5.40;;;;;;;3.85;70.23;100523.84;5046437;28;20457;-68
2021/04/07 09:17:52;;;;;;;6.80;6.10;;;;;;;3.87;69.87;100535.13;5060130;28;20824;-71
2021/04/07 09:20:34;;;;;;;6.60;5.20;;;;;;;3.99;69.39;100543.25;5057527;28;20438;-69
2021/04/07 09:23:14;;;;;;;7.50;5.13;;;;;;;3.88;69.47;100534.28;5051909;28;20873;-71
2021/04/07 09:25:45;;;;;;;7.90;5.90;;;;;;;4.36;68.31;100526.38;5044798;28;20483;-69
2021/04/07 09:28:11;;;;;;;9.03;5.90;;;;;;;4.36;67.15;100535.84;5047751;28;20440;-70
2021/04/07 09:30:46;;;;;;;6.80;4.70;;;;;;;4.32;68.42;100531.41;5042512;28;20559;-70
2021/04/07 09:33:13;;;;;;;5.80;5.20;;;;;;;4.36;68.68;100523.78;5045552;28;20174;-70
2021/04/07 09:35:57;;;;;;;5.00;4.60;;;;;;;4.59;67.82;100522.72;5050059;28;20440;-69
2021/04/07 09:38:22;;;;;;;5.10;4.50;;;;;;;4.47;67.61;100529.28;5059493;28;20470;-70
2021/04/07 09:40:48;;;;;;;5.13;4.73;;;;;;;4.77;66.75;100525.00;5056870;28;20436;-68
2021/04/07 09:43:13;;;;;;;6.00;4.73;;;;;;;4.00;69.10;100531.22;5046512;28;20456;-67
2021/04/07 09:45:39;;;;;;;5.50;4.53;;;;;;;4.52;68.19;100532.03;5052507;28;20185;-66
2021/04/07 09:48:05;;;;;;;7.63;4.80;;;;;;;4.85;66.76;100523.53;5049427;28;20186;-69
2021/04/07 09:50:32;;;;;;;5.33;4.83;;;;;;;4.95;66.43;100522.97;5042900;28;20214;-67
2021/04/07 09:52:57;;;;;;;4.23;3.83;;;;;;;4.54;67.62;100525.19;5040424;28;20689;-67
2021/04/07 09:55:23;;;;;;;5.63;4.47;;;;;;;4.21;68.26;100518.16;5053347;28;20481;-68
2021/04/07 09:58:01;;;;;;;4.70;4.20;;;;;;;4.23;68.35;100521.66;5058609;28;20183;-67
2021/04/07 10:00:31;;;;;;;4.37;3.73;;;;;;;4.43;68.06;100529.16;5058170;28;20533;-67
2021/04/07 10:02:57;;;;;;;4.47;3.90;;;;;;;4.36;68.48;100528.09;5043524;28;20502;-68
2021/04/07 10:05:29;;;;;;;4.20;3.90;;;;;;;4.91;66.90;100521.09;5072017;28;20413;-66
2021/04/07 10:08:19;;;;;;;5.00;4.10;;;;;;;5.22;66.97;100509.06;5042779;28;20212;-70
2021/04/07 10:10:45;;;;;;;4.80;4.30;;;;;;;5.14;66.38;100515.72;5059230;28;20502;-68
2021/04/07 10:13:11;;;;;;;4.10;3.70;;;;;;;5.42;64.95;100504.44;5055079;28;20475;-66
2021/04/07 10:15:39;;;;;;;5.43;3.93;;;;;;;5.51;64.63;100506.41;5039821;28;20243;-68
2021/04/07 10:18:06;;;;;;;6.70;4.20;;;;;;;5.59;64.18;100506.59;5050073;28;20451;-66
2021/04/07 10:20:31;;;;;;;4.43;4.00;;;;;;;6.68;61.88;100504.03;5041728;28;20450;-66
2021/04/07 10:22:57;;;;;;;4.87;3.93;;;;;;;6.79;61.05;100495.63;5040102;28;20432;-67
2021/04/07 10:25:26;;;;;;;4.00;3.70;;;;;;;6.18;62.43;100503.78;5057118;28;20225;-67
2021/04/07 10:27:51;;;;;;;7.60;4.63;;;;;;;6.15;63.03;100506.31;5054007;28;20178;-66
2021/04/07 10:30:21;;;;;;;4.30;3.90;;;;;;;7.15;60.72;100495.50;5038951;28;20479;-68
2021/04/07 10:32:48;;;;;;;4.40;4.00;;;;;;;6.85;61.08;100488.00;5048194;28;20497;-67
2021/04/07 10:35:26;;;;;;;3.80;3.50;;;;;;;6.44;61.64;100495.75;5048327;28;20433;-67
2021/04/07 10:38:02;;;;;;;4.20;3.80;;;;;;;7.02;60.01;100488.34;5043674;28;20436;-67
2021/04/07 10:40:29;;;;;;;4.30;3.90;;;;;;;7.61;58.64;100487.72;5040527;28;20435;-66
2021/04/07 10:42:54;;;;;;;4.43;4.03;;;;;;;7.07;59.89;100490.16;5063058;28;20482;-66
2021/04/07 10:45:21;;;;;;;6.73;4.30;;;;;;;6.30;62.58;100498.03;5044939;28;20444;-66
2021/04/07 10:47:48;;;;;;;4.33;3.93;;;;;;;6.07;61.97;100500.94;5038835;28;20182;-68
2021/04/07 10:50:13;;;;;;;4.53;3.67;;;;;;;6.17;62.75;100496.84;5039005;28;20496;-66
2021/04/07 10:52:41;;;;;;;4.53;4.13;;;;;;;6.04;64.78;100493.09;5055736;28;20844;-67
2021/04/07 10:55:19;;;;;;;4.60;3.90;;;;;;;6.15;64.11;100495.97;5057349;28;20185;-65
2021/04/07 10:57:48;;;;;;;5.13;4.20;;;;;;;6.35;62.64;100489.53;5055112;28;20447;-66
2021/04/07 11:00:32;;;;;;;5.27;4.10;;;;;;;6.23;63.46;100492.69;5038252;28;20420;-66
2021/04/07 11:02:57;;;;;;;4.67;4.27;;;;;;;6.17;63.68;100496.84;5047966;28;20904;-67
2021/04/07 11:05:25;;;;;;;4.53;4.13;;;;;;;6.96;62.91;100494.28;5038106;28;20433;-67
2021/04/07 11:08:00;;;;;;;5.13;3.77;;;;;;;7.11;62.23;100500.63;5061057;28;20594;-68
2021/04/07 11:10:26;;;;;;;6.63;4.37;;;;;;;7.17;61.09;100498.13;5057168;28;20574;-68
2021/04/07 11:12:51;;;;;;;4.80;4.30;;;;;;;7.54;60.08;100498.84;5056958;28;20491;-67
2021/04/07 11:15:18;;;;;;;4.77;3.80;;;;;;;7.22;61.15;100491.31;5050211;28;20194;-67
2021/04/07 11:17:53;;;;;;;4.10;3.70;;;;;;;6.98;61.69;100492.59;5038944;28;20209;-68
2021/04/07 11:20:23;;;;;;;5.17;3.93;;;;;;;6.54;64.08;100495.97;5044709;28;20454;-67
2021/04/07 11:22:49;;;;;;;5.03;4.53;;;;;;;6.78;62.76;100494.78;5061280;28;20537;-68
2021/04/07 11:25:14;;;;;;;5.27;4.40;;;;;;;6.85;63.23;100488.88;5047576;28;20505;-67
2021/04/07 11:27:40;;;;;;;5.60;4.53;;;;;;;6.82;63.49;100487.91;5039732;28;20178;-68
2021/04/07 11:30:06;;;;;;;7.23;4.97;;;;;;;6.70;63.77;100489.44;5060863;28;20211;-67
2021/04/07 11:32:35;;;;;;;5.53;4.10;;;;;;;6.79;64.58;100486.13;5049442;28;20554;-66